sensor_id;sensor_type;location;lat;lon;timestamp;pressure;altitude;pressure_sealevel;temperature;humidity
26083;BME280;13848;49.018;12.078;2023-04-15T00:01:08;96515.81;;;7.26;76.67
26083;BME280;13848;49.018;12.078;2023-04-15T00:03:34;96514.50;;;7.16;76.77
26083;BME280;13848;49.018;12.078;2023-04-15T00:06:00;96508.91;;;7.18;77.02
26083;BME280;13848;49.018;12.078;2023-04-15T00:08:26;96512.53;;;7.24;77.00
26083;BME280;13848;49.018;12.078;2023-04-15T00:10:52;96514.78;;;7.27;76.67
26083;BME280;13848;49.018;12.078;2023-04-15T00:13:18;96505.09;;;7.26;76.59
26083;BME280;13848;49.018;12.078;2023-04-15T00:15:45;96500.75;;;7.25;76.50
26083;BME280;13848;49.018;12.078;2023-04-15T00:18:11;96507.03;;;7.18;77.03
26083;BME280;13848;49.018;12.078;2023-04-15T00:20:37;96500.19;;;7.23;76.51
26083;BME280;13848;49.018;12.078;2023-04-15T00:23:03;96499.25;;;7.29;76.33
26083;BME280;13848;49.018;12.078;2023-04-15T00:25:29;96493.56;;;7.25;76.30
26083;BME280;13848;49.018;12.078;2023-04-15T00:27:55;96495.78;;;7.28;76.40
26083;BME280;13848;49.018;12.078;2023-04-15T00:30:21;96494.16;;;7.27;76.49
26083;BME280;13848;49.018;12.078;2023-04-15T00:32:48;96484.47;;;7.26;76.26
26083;BME280;13848;49.018;12.078;2023-04-15T00:35:14;96479.94;;;7.27;76.09
26083;BME280;13848;49.018;12.078;2023-04-15T00:37:40;96477.81;;;7.29;76.71
26083;BME280;13848;49.018;12.078;2023-04-15T00:40:10;96479.00;;;7.33;76.11
26083;BME280;13848;49.018;12.078;2023-04-15T00:42:37;96478.06;;;7.27;76.25
26083;BME280;13848;49.018;12.078;2023-04-15T00:45:04;96476.75;;;7.30;75.66
26083;BME280;13848;49.018;12.078;2023-04-15T00:47:30;96474.09;;;7.30;75.98
26083;BME280;13848;49.018;12.078;2023-04-15T00:49:59;96479.94;;;7.27;75.85
26083;BME280;13848;49.018;12.078;2023-04-15T00:52:25;96475.13;;;7.29;76.20
26083;BME280;13848;49.018;12.078;2023-04-15T00:54:51;96484.81;;;7.30;75.71
26083;BME280;13848;49.018;12.078;2023-04-15T00:57:20;96477.81;;;7.29;75.61
26083;BME280;13848;49.018;12.078;2023-04-15T00:59:46;96473.16;;;7.36;75.49
26083;BME280;13848;49.018;12.078;2023-04-15T01:02:12;96467.34;;;7.39;75.61
26083;BME280;13848;49.018;12.078;2023-04-15T01:04:38;96465.25;;;7.41;75.28
26083;BME280;13848;49.018;12.078;2023-04-15T01:07:05;96467.34;;;7.39;75.14
26083;BME280;13848;49.018;12.078;2023-04-15T01:09:31;96471.66;;;7.40;75.10
26083;BME280;13848;49.018;12.078;2023-04-15T01:11:57;96471.09;;;7.38;75.56
26083;BME280;13848;49.018;12.078;2023-04-15T01:14:24;96471.19;;;7.31;75.26
26083;BME280;13848;49.018;12.078;2023-04-15T01:16:51;96472.72;;;7.39;75.34
26083;BME280;13848;49.018;12.078;2023-04-15T01:19:17;96469.06;;;7.22;76.15
26083;BME280;13848;49.018;12.078;2023-04-15T01:21:44;96470.81;;;7.28;75.66
26083;BME280;13848;49.018;12.078;2023-04-15T01:24:12;96464.88;;;7.26;75.17
26083;BME280;13848;49.018;12.078;2023-04-15T01:26:42;96470.13;;;7.20;76.01
26083;BME280;13848;49.018;12.078;2023-04-15T01:29:08;96462.53;;;7.29;75.85
26083;BME280;13848;49.018;12.078;2023-04-15T01:31:34;96464.09;;;7.37;75.34
26083;BME280;13848;49.018;12.078;2023-04-15T01:34:00;96472.47;;;7.29;75.44
26083;BME280;13848;49.018;12.078;2023-04-15T01:36:26;96472.34;;;7.35;75.21
26083;BME280;13848;49.018;12.078;2023-04-15T01:38:51;96470.16;;;7.44;75.59
26083;BME280;13848;49.018;12.078;2023-04-15T01:41:20;96474.72;;;7.43;75.52
26083;BME280;13848;49.018;12.078;2023-04-15T01:43:48;96473.66;;;7.44;75.36
26083;BME280;13848;49.018;12.078;2023-04-15T01:46:13;96474.34;;;7.40;75.26
26083;BME280;13848;49.018;12.078;2023-04-15T01:48:39;96472.22;;;7.30;75.19
26083;BME280;13848;49.018;12.078;2023-04-15T01:51:05;96469.91;;;7.34;75.47
26083;BME280;13848;49.018;12.078;2023-04-15T01:53:31;96461.16;;;7.38;75.40
26083;BME280;13848;49.018;12.078;2023-04-15T01:55:57;96455.44;;;7.35;75.22
26083;BME280;13848;49.018;12.078;2023-04-15T01:58:24;96457.44;;;7.39;74.91
26083;BME280;13848;49.018;12.078;2023-04-15T02:00:51;96458.25;;;7.40;75.17
26083;BME280;13848;49.018;12.078;2023-04-15T02:03:17;96462.53;;;7.29;75.23
26083;BME280;13848;49.018;12.078;2023-04-15T02:05:43;96470.47;;;7.36;75.10
26083;BME280;13848;49.018;12.078;2023-04-15T02:08:09;96466.88;;;7.42;74.92
26083;BME280;13848;49.018;12.078;2023-04-15T02:10:35;96468.97;;;7.40;74.93
26083;BME280;13848;49.018;12.078;2023-04-15T02:13:01;96466.41;;;7.45;75.38
26083;BME280;13848;49.018;12.078;2023-04-15T02:15:27;96459.66;;;7.31;75.04
26083;BME280;13848;49.018;12.078;2023-04-15T02:17:54;96460.47;;;7.31;75.38
26083;BME280;13848;49.018;12.078;2023-04-15T02:20:20;96456.84;;;7.26;75.18
26083;BME280;13848;49.018;12.078;2023-04-15T02:22:47;96453.25;;;7.32;75.04
26083;BME280;13848;49.018;12.078;2023-04-15T02:25:13;96457.56;;;7.33;75.09
26083;BME280;13848;49.018;12.078;2023-04-15T02:27:39;96459.06;;;7.29;75.21
26083;BME280;13848;49.018;12.078;2023-04-15T02:30:06;96460.91;;;7.28;74.81
26083;BME280;13848;49.018;12.078;2023-04-15T02:32:32;96455.94;;;7.32;75.43
26083;BME280;13848;49.018;12.078;2023-04-15T02:35:02;96462.34;;;7.31;75.63
26083;BME280;13848;49.018;12.078;2023-04-15T02:37:28;96461.28;;;7.32;75.57
26083;BME280;13848;49.018;12.078;2023-04-15T02:39:54;96462.34;;;7.31;75.16
26083;BME280;13848;49.018;12.078;2023-04-15T02:42:20;96458.59;;;7.20;76.63
26083;BME280;13848;49.018;12.078;2023-04-15T02:44:46;96463.13;;;7.19;75.86
26083;BME280;13848;49.018;12.078;2023-04-15T02:47:12;96458.69;;;7.13;76.31
26083;BME280;13848;49.018;12.078;2023-04-15T02:49:38;96459.00;;;7.05;77.07
26083;BME280;13848;49.018;12.078;2023-04-15T02:52:05;96465.03;;;7.01;77.14
26083;BME280;13848;49.018;12.078;2023-04-15T02:54:31;96466.59;;;7.08;76.54
26083;BME280;13848;49.018;12.078;2023-04-15T02:56:57;96455.31;;;7.18;77.10
26083;BME280;13848;49.018;12.078;2023-04-15T02:59:23;96468.69;;;7.18;77.10
26083;BME280;13848;49.018;12.078;2023-04-15T03:01:49;96460.91;;;7.16;77.23
26083;BME280;13848;49.018;12.078;2023-04-15T03:04:15;96465.47;;;7.28;77.58
26083;BME280;13848;49.018;12.078;2023-04-15T03:06:41;96464.06;;;7.25;77.15
26083;BME280;13848;49.018;12.078;2023-04-15T03:09:09;96466.53;;;7.27;77.24
26083;BME280;13848;49.018;12.078;2023-04-15T03:11:35;96465.47;;;7.28;77.31
26083;BME280;13848;49.018;12.078;2023-04-15T03:14:01;96458.81;;;7.30;77.93
26083;BME280;13848;49.018;12.078;2023-04-15T03:16:26;96459.84;;;7.17;77.60
26083;BME280;13848;49.018;12.078;2023-04-15T03:18:52;96461.72;;;7.17;77.96
26083;BME280;13848;49.018;12.078;2023-04-15T03:21:18;96457.41;;;7.16;78.59
26083;BME280;13848;49.018;12.078;2023-04-15T03:23:44;96455.53;;;7.16;78.59
26083;BME280;13848;49.018;12.078;2023-04-15T03:26:22;96463.22;;;7.25;78.63
26083;BME280;13848;49.018;12.078;2023-04-15T03:28:48;96458.47;;;7.27;78.74
26083;BME280;13848;49.018;12.078;2023-04-15T03:31:14;96459.66;;;7.31;78.58
26083;BME280;13848;49.018;12.078;2023-04-15T03:33:40;96457.97;;;7.06;78.38
26083;BME280;13848;49.018;12.078;2023-04-15T03:36:06;96456.47;;;7.10;78.89
26083;BME280;13848;49.018;12.078;2023-04-15T03:38:32;96449.34;;;7.04;79.50
26083;BME280;13848;49.018;12.078;2023-04-15T03:40:58;96454.22;;;7.07;79.01
26083;BME280;13848;49.018;12.078;2023-04-15T03:43:25;96459.00;;;7.05;79.63
26083;BME280;13848;49.018;12.078;2023-04-15T03:45:51;96457.50;;;7.09;79.01
26083;BME280;13848;49.018;12.078;2023-04-15T03:48:17;96460.63;;;7.06;79.70
26083;BME280;13848;49.018;12.078;2023-04-15T03:50:43;96459.72;;;7.12;79.41
26083;BME280;13848;49.018;12.078;2023-04-15T03:53:09;96455.31;;;7.18;79.46
26083;BME280;13848;49.018;12.078;2023-04-15T03:55:35;96443.84;;;6.99;79.89
26083;BME280;13848;49.018;12.078;2023-04-15T03:58:01;96456.00;;;7.02;80.05
26083;BME280;13848;49.018;12.078;2023-04-15T04:00:29;96447.66;;;6.80;80.21
26083;BME280;13848;49.018;12.078;2023-04-15T04:02:55;96452.53;;;6.83;81.07
26083;BME280;13848;49.018;12.078;2023-04-15T04:05:20;96450.06;;;6.70;81.48
26083;BME280;13848;49.018;12.078;2023-04-15T04:07:46;96450.38;;;6.61;81.23
26083;BME280;13848;49.018;12.078;2023-04-15T04:10:12;96454.09;;;6.60;81.68
26083;BME280;13848;49.018;12.078;2023-04-15T04:12:38;96458.41;;;6.61;82.44
26083;BME280;13848;49.018;12.078;2023-04-15T04:15:05;96459.09;;;6.57;82.47
26083;BME280;13848;49.018;12.078;2023-04-15T04:17:33;96454.91;;;6.61;82.13
26083;BME280;13848;49.018;12.078;2023-04-15T04:19:58;96460.19;;;6.68;82.22
26083;BME280;13848;49.018;12.078;2023-04-15T04:22:24;96464.06;;;6.53;82.88
26083;BME280;13848;49.018;12.078;2023-04-15T04:24:50;96461.53;;;6.58;82.56
26083;BME280;13848;49.018;12.078;2023-04-15T04:27:16;96468.81;;;6.70;81.89
26083;BME280;13848;49.018;12.078;2023-04-15T04:29:42;96468.81;;;6.70;82.53
26083;BME280;13848;49.018;12.078;2023-04-15T04:32:08;96469.72;;;6.63;83.05
26083;BME280;13848;49.018;12.078;2023-04-15T04:34:36;96476.69;;;6.64;82.65
26083;BME280;13848;49.018;12.078;2023-04-15T04:37:02;96476.84;;;6.70;82.76
26083;BME280;13848;49.018;12.078;2023-04-15T04:39:28;96486.69;;;6.57;83.72
26083;BME280;13848;49.018;12.078;2023-04-15T04:41:54;96479.09;;;6.54;84.84
26083;BME280;13848;49.018;12.078;2023-04-15T04:44:20;96485.88;;;6.57;84.45
26083;BME280;13848;49.018;12.078;2023-04-15T04:46:46;96488.31;;;6.58;84.82
26083;BME280;13848;49.018;12.078;2023-04-15T04:49:12;96489.03;;;6.65;84.20
26083;BME280;13848;49.018;12.078;2023-04-15T04:51:39;96494.56;;;6.52;83.98
26083;BME280;13848;49.018;12.078;2023-04-15T04:54:05;96496.34;;;6.58;83.86
26083;BME280;13848;49.018;12.078;2023-04-15T04:56:31;96494.78;;;6.69;84.17
26083;BME280;13848;49.018;12.078;2023-04-15T04:58:57;96498.84;;;6.72;83.99
26083;BME280;13848;49.018;12.078;2023-04-15T05:01:23;96501.63;;;6.65;83.63
26083;BME280;13848;49.018;12.078;2023-04-15T05:03:49;96508.09;;;6.57;83.82
26083;BME280;13848;49.018;12.078;2023-04-15T05:06:15;96509.31;;;6.61;84.28
26083;BME280;13848;49.018;12.078;2023-04-15T05:08:42;96506.97;;;6.65;84.54
26083;BME280;13848;49.018;12.078;2023-04-15T05:11:08;96506.81;;;6.60;84.29
26083;BME280;13848;49.018;12.078;2023-04-15T05:13:34;96503.03;;;6.68;83.99
26083;BME280;13848;49.018;12.078;2023-04-15T05:16:00;96493.50;;;6.72;83.99
26083;BME280;13848;49.018;12.078;2023-04-15T05:18:26;96504.66;;;6.69;84.52
26083;BME280;13848;49.018;12.078;2023-04-15T05:20:51;96497.84;;;6.54;84.58
26083;BME280;13848;49.018;12.078;2023-04-15T05:23:18;96500.22;;;6.62;84.48
26083;BME280;13848;49.018;12.078;2023-04-15T05:25:45;96498.63;;;6.73;83.95
26083;BME280;13848;49.018;12.078;2023-04-15T05:28:11;96503.66;;;6.81;83.94
26083;BME280;13848;49.018;12.078;2023-04-15T05:30:37;96497.50;;;6.81;83.98
26083;BME280;13848;49.018;12.078;2023-04-15T05:33:03;96505.09;;;6.65;84.36
26083;BME280;13848;49.018;12.078;2023-04-15T05:35:29;96505.59;;;6.26;85.39
26083;BME280;13848;49.018;12.078;2023-04-15T05:37:55;96505.16;;;6.29;84.35
26083;BME280;13848;49.018;12.078;2023-04-15T05:40:21;96509.19;;;6.38;84.56
26083;BME280;13848;49.018;12.078;2023-04-15T05:42:49;96503.69;;;6.33;84.62
26083;BME280;13848;49.018;12.078;2023-04-15T05:45:15;96507.16;;;6.15;85.19
26083;BME280;13848;49.018;12.078;2023-04-15T05:47:41;96509.31;;;6.25;84.55
26083;BME280;13848;49.018;12.078;2023-04-15T05:50:07;96503.38;;;6.23;84.21
26083;BME280;13848;49.018;12.078;2023-04-15T05:52:33;96508.25;;;6.26;84.22
26083;BME280;13848;49.018;12.078;2023-04-15T05:54:59;96521.06;;;6.24;84.66
26083;BME280;13848;49.018;12.078;2023-04-15T05:57:25;96521.06;;;6.24;84.25
26083;BME280;13848;49.018;12.078;2023-04-15T05:59:52;96513.94;;;6.18;84.70
26083;BME280;13848;49.018;12.078;2023-04-15T06:02:18;96513.25;;;6.22;84.52
26083;BME280;13848;49.018;12.078;2023-04-15T06:04:44;96516.28;;;6.26;83.79
26083;BME280;13848;49.018;12.078;2023-04-15T06:07:10;96505.47;;;6.21;84.22
26083;BME280;13848;49.018;12.078;2023-04-15T06:09:36;96509.00;;;6.14;84.98
26083;BME280;13848;49.018;12.078;2023-04-15T06:12:02;96509.78;;;6.22;84.39
26083;BME280;13848;49.018;12.078;2023-04-15T06:14:28;96507.91;;;6.04;85.13
26083;BME280;13848;49.018;12.078;2023-04-15T06:16:55;96518.53;;;5.92;85.90
26083;BME280;13848;49.018;12.078;2023-04-15T06:19:21;96518.16;;;6.07;86.44
26083;BME280;13848;49.018;12.078;2023-04-15T06:21:47;96515.31;;;6.20;85.74
26083;BME280;13848;49.018;12.078;2023-04-15T06:24:13;96511.63;;;6.21;84.90
26083;BME280;13848;49.018;12.078;2023-04-15T06:26:39;96516.00;;;6.16;84.55
26083;BME280;13848;49.018;12.078;2023-04-15T06:29:05;96517.13;;;6.26;84.78
26083;BME280;13848;49.018;12.078;2023-04-15T06:31:31;96526.72;;;6.16;84.47
26083;BME280;13848;49.018;12.078;2023-04-15T06:33:58;96513.03;;;6.24;84.92
26083;BME280;13848;49.018;12.078;2023-04-15T06:36:24;96519.59;;;6.28;84.46
26083;BME280;13848;49.018;12.078;2023-04-15T06:38:50;96518.53;;;6.29;84.67
26083;BME280;13848;49.018;12.078;2023-04-15T06:41:16;96519.72;;;6.33;83.92
26083;BME280;13848;49.018;12.078;2023-04-15T06:43:42;96517.41;;;6.36;83.74
26083;BME280;13848;49.018;12.078;2023-04-15T06:46:08;96518.69;;;6.34;83.91
26083;BME280;13848;49.018;12.078;2023-04-15T06:48:34;96527.22;;;6.43;83.72
26083;BME280;13848;49.018;12.078;2023-04-15T06:51:02;96526.78;;;6.46;84.12
26083;BME280;13848;49.018;12.078;2023-04-15T06:53:28;96523.88;;;6.47;83.83
26083;BME280;13848;49.018;12.078;2023-04-15T06:55:54;96527.44;;;6.41;83.86
26083;BME280;13848;49.018;12.078;2023-04-15T06:58:19;96533.84;;;6.40;84.32
26083;BME280;13848;49.018;12.078;2023-04-15T07:00:46;96531.91;;;6.47;83.52
26083;BME280;13848;49.018;12.078;2023-04-15T07:03:12;96529.22;;;6.47;83.04
26083;BME280;13848;49.018;12.078;2023-04-15T07:05:38;96528.03;;;6.43;83.52
26083;BME280;13848;49.018;12.078;2023-04-15T07:08:05;96521.19;;;6.47;83.24
26083;BME280;13848;49.018;12.078;2023-04-15T07:10:31;96517.13;;;6.45;82.54
26083;BME280;13848;49.018;12.078;2023-04-15T07:12:57;96524.34;;;6.44;83.43
26083;BME280;13848;49.018;12.078;2023-04-15T07:15:23;96528.81;;;6.50;82.71
26083;BME280;13848;49.018;12.078;2023-04-15T07:17:49;96526.56;;;6.47;84.07
26083;BME280;13848;49.018;12.078;2023-04-15T07:20:15;96524.41;;;6.56;82.79
26083;BME280;13848;49.018;12.078;2023-04-15T07:22:41;96522.06;;;6.59;83.12
26083;BME280;13848;49.018;12.078;2023-04-15T07:25:09;96529.22;;;6.47;83.46
26083;BME280;13848;49.018;12.078;2023-04-15T07:27:35;96531.97;;;6.59;82.75
26083;BME280;13848;49.018;12.078;2023-04-15T07:30:01;96531.31;;;6.63;83.57
26083;BME280;13848;49.018;12.078;2023-04-15T07:32:27;96537.09;;;6.79;82.47
26083;BME280;13848;49.018;12.078;2023-04-15T07:34:53;96526.91;;;6.69;82.91
26083;BME280;13848;49.018;12.078;2023-04-15T07:37:19;96535.09;;;6.74;82.45
26083;BME280;13848;49.018;12.078;2023-04-15T07:39:45;96529.06;;;6.60;82.23
26083;BME280;13848;49.018;12.078;2023-04-15T07:42:12;96536.09;;;6.61;82.67
26083;BME280;13848;49.018;12.078;2023-04-15T07:44:38;96534.28;;;6.74;83.12
26083;BME280;13848;49.018;12.078;2023-04-15T07:47:04;96533.09;;;6.70;82.83
26083;BME280;13848;49.018;12.078;2023-04-15T07:49:30;96546.09;;;6.84;82.66
26083;BME280;13848;49.018;12.078;2023-04-15T07:51:56;96541.75;;;6.83;82.18
26083;BME280;13848;49.018;12.078;2023-04-15T07:54:22;96549.44;;;6.80;82.94
26083;BME280;13848;49.018;12.078;2023-04-15T07:56:48;96544.66;;;6.82;82.91
26083;BME280;13848;49.018;12.078;2023-04-15T07:59:16;96544.91;;;6.80;82.38
26083;BME280;13848;49.018;12.078;2023-04-15T08:01:42;96548.34;;;6.69;83.38
26083;BME280;13848;49.018;12.078;2023-04-15T08:04:08;96548.97;;;6.83;83.07
26083;BME280;13848;49.018;12.078;2023-04-15T08:06:34;96539.94;;;6.96;83.03
26083;BME280;13848;49.018;12.078;2023-04-15T08:09:00;96547.91;;;7.02;83.27
26083;BME280;13848;49.018;12.078;2023-04-15T08:11:26;96550.13;;;7.05;82.66
26083;BME280;13848;49.018;12.078;2023-04-15T08:13:52;96560.44;;;6.90;82.98
26083;BME280;13848;49.018;12.078;2023-04-15T08:16:21;96549.34;;;6.86;83.51
26083;BME280;13848;49.018;12.078;2023-04-15T08:18:49;96551.22;;;6.86;83.27
26083;BME280;13848;49.018;12.078;2023-04-15T08:21:15;96554.19;;;6.78;83.31
26083;BME280;13848;49.018;12.078;2023-04-15T08:23:41;96549.63;;;6.97;83.85
26083;BME280;13848;49.018;12.078;2023-04-15T08:26:08;96558.78;;;6.89;83.15
26083;BME280;13848;49.018;12.078;2023-04-15T08:28:34;96550.59;;;6.84;84.18
26083;BME280;13848;49.018;12.078;2023-04-15T08:31:00;96568.50;;;6.90;83.87
26083;BME280;13848;49.018;12.078;2023-04-15T08:33:28;96573.22;;;6.88;83.74
26083;BME280;13848;49.018;12.078;2023-04-15T08:35:54;96567.38;;;6.79;84.42
26083;BME280;13848;49.018;12.078;2023-04-15T08:38:19;96566.69;;;6.84;84.52
26083;BME280;13848;49.018;12.078;2023-04-15T08:40:45;96572.94;;;6.78;84.10
26083;BME280;13848;49.018;12.078;2023-04-15T08:43:17;96573.69;;;6.85;84.15
26083;BME280;13848;49.018;12.078;2023-04-15T08:45:44;96568.69;;;6.88;84.86
26083;BME280;13848;49.018;12.078;2023-04-15T08:48:14;96577.44;;;6.96;84.55
26083;BME280;13848;49.018;12.078;2023-04-15T08:50:41;96570.06;;;7.09;84.43
26083;BME280;13848;49.018;12.078;2023-04-15T08:53:08;96576.78;;;7.00;84.20
26083;BME280;13848;49.018;12.078;2023-04-15T08:55:35;96579.03;;;7.03;84.44
26083;BME280;13848;49.018;12.078;2023-04-15T08:58:05;96584.06;;;7.11;84.77
26083;BME280;13848;49.018;12.078;2023-04-15T09:00:31;96575.72;;;7.19;84.17
26083;BME280;13848;49.018;12.078;2023-04-15T09:02:58;96571.06;;;7.27;84.22
26083;BME280;13848;49.018;12.078;2023-04-15T09:05:24;96581.56;;;7.28;84.27
26083;BME280;13848;49.018;12.078;2023-04-15T09:07:51;96583.81;;;7.13;83.94
26083;BME280;13848;49.018;12.078;2023-04-15T09:10:17;96591.13;;;7.06;84.17
26083;BME280;13848;49.018;12.078;2023-04-15T09:12:43;96588.78;;;6.98;83.99
26083;BME280;13848;49.018;12.078;2023-04-15T09:15:10;96590.31;;;7.05;83.87
26083;BME280;13848;49.018;12.078;2023-04-15T09:17:41;96585.78;;;7.06;84.10
26083;BME280;13848;49.018;12.078;2023-04-15T09:20:09;96592.25;;;7.16;83.91
26083;BME280;13848;49.018;12.078;2023-04-15T09:22:35;96593.56;;;7.26;84.13
26083;BME280;13848;49.018;12.078;2023-04-15T09:25:03;96596.69;;;7.23;83.96
26083;BME280;13848;49.018;12.078;2023-04-15T09:27:29;96599.19;;;7.36;84.83
26083;BME280;13848;49.018;12.078;2023-04-15T09:29:55;96602.72;;;7.36;84.28
26083;BME280;13848;49.018;12.078;2023-04-15T09:32:21;96602.56;;;7.31;83.06
26083;BME280;13848;49.018;12.078;2023-04-15T09:34:47;96601.22;;;7.52;84.76
26083;BME280;13848;49.018;12.078;2023-04-15T09:37:13;96598.84;;;7.74;83.50
26083;BME280;13848;49.018;12.078;2023-04-15T09:39:47;96602.75;;;7.48;82.68
26083;BME280;13848;49.018;12.078;2023-04-15T09:42:14;96603.06;;;7.40;82.54
26083;BME280;13848;49.018;12.078;2023-04-15T09:44:41;96605.50;;;7.41;82.19
26083;BME280;13848;49.018;12.078;2023-04-15T09:47:06;96602.84;;;7.53;82.42
26083;BME280;13848;49.018;12.078;2023-04-15T09:49:32;96609.88;;;7.54;82.50
26083;BME280;13848;49.018;12.078;2023-04-15T09:51:59;96615.16;;;7.31;82.56
26083;BME280;13848;49.018;12.078;2023-04-15T09:54:32;96617.66;;;7.14;82.44
26083;BME280;13848;49.018;12.078;2023-04-15T09:57:04;96617.28;;;7.10;83.48
26083;BME280;13848;49.018;12.078;2023-04-15T09:59:31;96621.88;;;7.22;82.76
26083;BME280;13848;49.018;12.078;2023-04-15T10:01:57;96609.03;;;8.07;85.61
26083;BME280;13848;49.018;12.078;2023-04-15T10:04:24;96616.22;;;9.41;80.83
26083;BME280;13848;49.018;12.078;2023-04-15T10:06:52;96610.44;;;8.68;78.10
26083;BME280;13848;49.018;12.078;2023-04-15T10:09:18;96612.75;;;7.83;79.11
26083;BME280;13848;49.018;12.078;2023-04-15T10:11:44;96611.19;;;7.75;80.95
26083;BME280;13848;49.018;12.078;2023-04-15T10:14:13;96626.94;;;7.71;81.45
26083;BME280;13848;49.018;12.078;2023-04-15T10:16:43;96615.47;;;7.64;81.70
26083;BME280;13848;49.018;12.078;2023-04-15T10:19:10;96617.38;;;7.76;81.79
26083;BME280;13848;49.018;12.078;2023-04-15T10:21:37;96630.66;;;7.70;82.15
26083;BME280;13848;49.018;12.078;2023-04-15T10:24:03;96619.38;;;7.92;82.00
26083;BME280;13848;49.018;12.078;2023-04-15T10:26:30;96624.50;;;7.82;81.43
26083;BME280;13848;49.018;12.078;2023-04-15T10:28:57;96616.31;;;7.77;81.72
26083;BME280;13848;49.018;12.078;2023-04-15T10:31:23;96620.91;;;7.88;82.04
26083;BME280;13848;49.018;12.078;2023-04-15T10:33:51;96608.41;;;7.93;81.75
26083;BME280;13848;49.018;12.078;2023-04-15T10:36:18;96613.66;;;7.88;81.23
26083;BME280;13848;49.018;12.078;2023-04-15T10:38:45;96616.00;;;7.85;81.30
26083;BME280;13848;49.018;12.078;2023-04-15T10:41:15;96616.84;;;7.97;81.47
26083;BME280;13848;49.018;12.078;2023-04-15T10:43:46;96612.88;;;8.11;80.87
26083;BME280;13848;49.018;12.078;2023-04-15T10:46:12;96614.97;;;7.97;81.35
26083;BME280;13848;49.018;12.078;2023-04-15T10:48:38;96612.28;;;8.09;81.38
26083;BME280;13848;49.018;12.078;2023-04-15T10:51:05;96617.78;;;8.26;81.66
26083;BME280;13848;49.018;12.078;2023-04-15T10:53:31;96613.75;;;8.47;80.29
26083;BME280;13848;49.018;12.078;2023-04-15T10:55:58;96618.38;;;8.63;79.13
26083;BME280;13848;49.018;12.078;2023-04-15T10:58:24;96614.84;;;8.74;78.51
26083;BME280;13848;49.018;12.078;2023-04-15T11:00:52;96613.91;;;8.80;77.79
26083;BME280;13848;49.018;12.078;2023-04-15T11:03:35;96615.09;;;8.85;78.39
26083;BME280;13848;49.018;12.078;2023-04-15T11:06:01;96610.34;;;9.03;77.75
26083;BME280;13848;49.018;12.078;2023-04-15T11:08:56;96615.03;;;9.08;76.47
26083;BME280;13848;49.018;12.078;2023-04-15T11:11:22;96612.91;;;9.10;77.17
26083;BME280;13848;49.018;12.078;2023-04-15T11:13:50;96620.41;;;9.08;76.60
26083;BME280;13848;49.018;12.078;2023-04-15T11:16:16;96616.78;;;9.02;77.12
26083;BME280;13848;49.018;12.078;2023-04-15T11:18:52;96624.47;;;9.22;76.59
26083;BME280;13848;49.018;12.078;2023-04-15T11:21:18;96616.56;;;9.32;76.29
26083;BME280;13848;49.018;12.078;2023-04-15T11:23:49;96625.69;;;9.31;76.31
26083;BME280;13848;49.018;12.078;2023-04-15T11:26:16;96622.13;;;9.14;75.10
26083;BME280;13848;49.018;12.078;2023-04-15T11:28:43;96639.78;;;9.10;75.26
26083;BME280;13848;49.018;12.078;2023-04-15T11:31:11;96632.31;;;9.12;75.68
26083;BME280;13848;49.018;12.078;2023-04-15T11:33:43;96637.47;;;9.02;75.26
26083;BME280;13848;49.018;12.078;2023-04-15T11:36:10;96639.28;;;8.73;75.09
26083;BME280;13848;49.018;12.078;2023-04-15T11:38:36;96642.09;;;8.66;75.59
26083;BME280;13848;49.018;12.078;2023-04-15T11:41:02;96648.75;;;8.75;75.44
26083;BME280;13848;49.018;12.078;2023-04-15T11:43:31;96644.78;;;8.66;75.33
26083;BME280;13848;49.018;12.078;2023-04-15T11:45:58;96650.50;;;8.82;75.42
26083;BME280;13848;49.018;12.078;2023-04-15T11:48:26;96649.66;;;8.81;75.18
26083;BME280;13848;49.018;12.078;2023-04-15T11:50:53;96649.91;;;8.79;74.75
26083;BME280;13848;49.018;12.078;2023-04-15T11:53:19;96651.31;;;8.94;74.76
26083;BME280;13848;49.018;12.078;2023-04-15T11:55:47;96657.63;;;8.88;73.85
26083;BME280;13848;49.018;12.078;2023-04-15T11:58:15;96662.25;;;9.04;74.62
26083;BME280;13848;49.018;12.078;2023-04-15T12:00:47;96663.72;;;8.83;74.49
26083;BME280;13848;49.018;12.078;2023-04-15T12:03:16;96668.38;;;8.88;74.17
26083;BME280;13848;49.018;12.078;2023-04-15T12:06:02;96668.47;;;9.04;74.14
26083;BME280;13848;49.018;12.078;2023-04-15T12:08:49;96675.59;;;9.11;74.03
26083;BME280;13848;49.018;12.078;2023-04-15T12:11:16;96669.03;;;9.06;74.14
26083;BME280;13848;49.018;12.078;2023-04-15T12:13:42;96673.72;;;9.11;73.93
26083;BME280;13848;49.018;12.078;2023-04-15T12:16:10;96671.13;;;9.16;74.03
26083;BME280;13848;49.018;12.078;2023-04-15T12:18:36;96681.53;;;9.13;73.55
26083;BME280;13848;49.018;12.078;2023-04-15T12:21:07;96682.50;;;9.06;73.53
26083;BME280;13848;49.018;12.078;2023-04-15T12:23:36;96688.00;;;9.00;73.86
26083;BME280;13848;49.018;12.078;2023-04-15T12:26:04;96686.81;;;9.07;74.12
26083;BME280;13848;49.018;12.078;2023-04-15T12:28:30;96695.00;;;9.01;73.29
26083;BME280;13848;49.018;12.078;2023-04-15T12:30:56;96695.56;;;9.03;73.36
26083;BME280;13848;49.018;12.078;2023-04-15T12:33:25;96698.97;;;8.98;73.60
26083;BME280;13848;49.018;12.078;2023-04-15T12:35:57;96703.78;;;8.96;73.47
26083;BME280;13848;49.018;12.078;2023-04-15T12:38:23;96704.59;;;8.97;73.52
26083;BME280;13848;49.018;12.078;2023-04-15T12:40:49;96702.41;;;8.70;73.66
26083;BME280;13848;49.018;12.078;2023-04-15T12:43:15;96709.72;;;8.63;73.57
26083;BME280;13848;49.018;12.078;2023-04-15T12:45:41;96709.97;;;8.73;73.79
26083;BME280;13848;49.018;12.078;2023-04-15T12:48:07;96715.34;;;8.73;73.45
26083;BME280;13848;49.018;12.078;2023-04-15T12:50:34;96718.28;;;8.72;73.77
26083;BME280;13848;49.018;12.078;2023-04-15T12:53:01;96720.84;;;8.67;73.98
26083;BME280;13848;49.018;12.078;2023-04-15T12:55:27;96732.88;;;8.64;73.73
26083;BME280;13848;49.018;12.078;2023-04-15T12:57:53;96732.53;;;8.61;73.90